createdAt,value
2022-10-08T00:02:32.445Z,68.43
2022-10-08T00:05:07.268Z,68.43
2022-10-08T00:07:42.416Z,68.47
2022-10-08T00:10:15.676Z,68.57
2022-10-08T00:12:49.293Z,68.57
2022-10-08T00:15:22.767Z,68.64
2022-10-08T00:17:56.775Z,68.64
2022-10-08T00:20:30.554Z,68.73
2022-10-08T00:23:04.126Z,68.70
2022-10-08T00:25:43.049Z,68.75
2022-10-08T00:28:17.316Z,68.90
2022-10-08T00:30:50.982Z,68.85
2022-10-08T00:33:24.503Z,68.98
2022-10-08T00:36:02.267Z,68.86
2022-10-08T00:38:36.810Z,68.89
2022-10-08T00:41:19.021Z,68.95
2022-10-08T00:43:54.514Z,69.06
2022-10-08T00:46:32.497Z,69.19
2022-10-08T00:49:16.028Z,69.12
2022-10-08T00:51:54.121Z,69.35
2022-10-08T00:54:28.027Z,69.37
2022-10-08T00:57:01.276Z,69.29
2022-10-08T00:59:34.762Z,69.24
2022-10-08T01:02:10.290Z,69.24
2022-10-08T01:04:45.629Z,69.47
2022-10-08T01:07:24.944Z,69.35
2022-10-08T01:10:03.831Z,69.34
2022-10-08T01:12:45.291Z,69.44
2022-10-08T01:15:27.770Z,69.42
2022-10-08T01:18:11.616Z,69.52
2022-10-08T01:20:57.955Z,69.62
2022-10-08T01:23:52.921Z,69.80
2022-10-08T01:26:49.357Z,69.84
2022-10-08T01:29:27.722Z,69.84
2022-10-08T01:32:05.696Z,69.82
2022-10-08T01:34:42.747Z,69.97
2022-10-08T01:37:22.267Z,69.99
2022-10-08T01:39:58.619Z,70.02
2022-10-08T01:42:35.048Z,70.15
2022-10-08T01:45:13.893Z,70.06
2022-10-08T01:47:48.956Z,70.04
2022-10-08T01:50:28.466Z,70.19
2022-10-08T01:53:06.045Z,70.20
2022-10-08T01:55:42.322Z,70.26
2022-10-08T01:58:20.918Z,70.38
2022-10-08T02:00:55.987Z,70.34
2022-10-08T02:03:29.233Z,70.47
2022-10-08T02:06:05.079Z,70.65
2022-10-08T02:08:38.828Z,70.64
2022-10-08T02:11:12.354Z,70.73
2022-10-08T02:13:45.773Z,70.74
2022-10-08T02:16:29.439Z,70.88
2022-10-08T02:19:09.774Z,70.97
2022-10-08T02:21:46.332Z,70.97
2022-10-08T02:24:23.501Z,71.00
2022-10-08T02:27:00.600Z,71.13
2022-10-08T02:29:38.817Z,71.14
2022-10-08T02:32:20.363Z,71.10
2022-10-08T02:35:02.703Z,71.22
2022-10-08T02:37:41.845Z,71.19
2022-10-08T02:40:18.386Z,71.21
2022-10-08T02:42:57.988Z,71.23
2022-10-08T02:45:36.146Z,71.18
2022-10-08T02:48:16.972Z,71.21
2022-10-08T02:50:52.895Z,71.22
2022-10-08T02:53:27.633Z,71.16
2022-10-08T02:56:13.475Z,71.17
2022-10-08T02:58:47.608Z,71.24
2022-10-08T03:01:34.433Z,71.40
2022-10-08T03:04:11.568Z,71.44
2022-10-08T03:06:45.460Z,71.62
2022-10-08T03:09:20.149Z,71.70
2022-10-08T03:11:54.857Z,71.82
2022-10-08T03:14:29.052Z,71.90
2022-10-08T03:17:02.677Z,71.95
2022-10-08T03:19:37.043Z,71.93
2022-10-08T03:22:11.176Z,72.04
2022-10-08T03:24:45.142Z,72.13
2022-10-08T03:27:18.838Z,72.03
2022-10-08T03:29:57.460Z,72.21
2022-10-08T03:32:29.427Z,72.21
2022-10-08T03:35:02.732Z,72.14
2022-10-08T03:37:36.327Z,72.36
2022-10-08T03:40:11.875Z,72.38
2022-10-08T03:42:45.389Z,72.39
2022-10-08T03:45:19.028Z,72.40
2022-10-08T03:47:55.763Z,72.48
2022-10-08T03:50:29.192Z,72.46
2022-10-08T03:53:02.587Z,72.31
2022-10-08T03:55:38.927Z,72.28
2022-10-08T03:58:12.313Z,72.34
2022-10-08T04:00:45.974Z,72.39
2022-10-08T04:03:19.757Z,72.48
2022-10-08T04:05:54.187Z,72.47
2022-10-08T04:08:28.201Z,72.31
2022-10-08T04:11:03.793Z,72.24
2022-10-08T04:13:38.532Z,72.34
2022-10-08T04:16:15.209Z,72.32
2022-10-08T04:18:49.727Z,72.36
2022-10-08T04:21:23.551Z,72.36
2022-10-08T04:23:57.205Z,72.41
2022-10-08T04:26:30.539Z,72.39
2022-10-08T04:29:03.559Z,72.50
2022-10-08T04:31:37.183Z,72.61
2022-10-08T04:34:11.181Z,72.72
2022-10-08T04:36:44.709Z,72.84
2022-10-08T04:39:18.132Z,72.98
2022-10-08T04:41:51.928Z,72.90
2022-10-08T04:44:25.503Z,72.83
2022-10-08T04:46:58.874Z,72.87
2022-10-08T04:49:32.693Z,72.89
2022-10-08T04:52:06.068Z,72.96
2022-10-08T04:54:39.472Z,73.04
2022-10-08T04:57:13.102Z,73.00
2022-10-08T05:00:13.072Z,73.07
2022-10-08T05:02:41.203Z,73.11
2022-10-08T05:05:15.115Z,73.07
2022-10-08T05:07:48.471Z,72.95
2022-10-08T05:10:21.892Z,73.02
2022-10-08T05:12:56.597Z,72.84
2022-10-08T05:15:30.154Z,72.82
2022-10-08T05:18:03.864Z,72.83
2022-10-08T05:20:38.953Z,72.79
2022-10-08T05:23:12.658Z,72.65
2022-10-08T05:25:45.915Z,72.54
2022-10-08T05:28:19.556Z,72.53
2022-10-08T05:30:53.009Z,72.49
2022-10-08T05:33:26.434Z,72.52
2022-10-08T05:35:59.656Z,72.43
2022-10-08T05:38:35.312Z,72.48
2022-10-08T05:41:17.604Z,72.57
2022-10-08T05:43:51.316Z,72.29
2022-10-08T05:46:26.666Z,72.36
2022-10-08T05:49:01.777Z,72.25
2022-10-08T05:51:35.353Z,72.04
2022-10-08T05:54:09.085Z,72.10
2022-10-08T05:56:42.564Z,72.18
2022-10-08T05:59:20.299Z,72.28
2022-10-08T06:01:54.072Z,72.32
2022-10-08T06:04:27.674Z,72.13
2022-10-08T06:07:01.163Z,71.77
2022-10-08T06:09:34.907Z,71.90
2022-10-08T06:12:10.334Z,71.95
2022-10-08T06:14:44.292Z,71.85
2022-10-08T06:17:17.950Z,71.56
2022-10-08T06:19:51.656Z,71.56
2022-10-08T06:22:25.252Z,71.55
2022-10-08T06:24:58.781Z,71.57
2022-10-08T06:27:32.761Z,71.70
2022-10-08T06:30:06.265Z,71.58
2022-10-08T06:32:39.870Z,71.64
2022-10-08T06:35:13.397Z,71.50
2022-10-08T06:37:48.867Z,71.56
2022-10-08T06:40:22.415Z,71.44
2022-10-08T06:42:55.788Z,71.45
2022-10-08T06:45:29.015Z,71.37
2022-10-08T06:48:02.465Z,71.43
2022-10-08T06:50:36.730Z,71.59
2022-10-08T06:53:11.800Z,71.66
2022-10-08T06:55:45.156Z,71.62
2022-10-08T06:58:18.603Z,71.65
2022-10-08T07:00:52.452Z,71.75
2022-10-08T07:03:25.797Z,71.79
2022-10-08T07:06:00.927Z,71.75
2022-10-08T07:08:36.459Z,71.83
2022-10-08T07:11:12.180Z,71.80
2022-10-08T07:13:46.411Z,72.01
2022-10-08T07:16:21.706Z,71.94
2022-10-08T07:18:58.908Z,71.95
2022-10-08T07:21:33.353Z,71.94
2022-10-08T07:24:07.057Z,71.90
2022-10-08T07:26:40.413Z,71.98
2022-10-08T07:29:16.503Z,72.14
2022-10-08T07:31:50.289Z,72.27
2022-10-08T07:34:23.649Z,72.24
2022-10-08T07:36:57.254Z,72.27
2022-10-08T07:39:30.917Z,72.31
2022-10-08T07:42:04.473Z,72.21
2022-10-08T07:44:38.114Z,72.25
2022-10-08T07:47:11.413Z,72.22
2022-10-08T07:49:44.952Z,72.14
2022-10-08T07:52:18.634Z,72.15
2022-10-08T07:54:52.607Z,72.22
2022-10-08T07:57:26.026Z,72.10
2022-10-08T07:59:59.492Z,72.17
2022-10-08T08:02:33.033Z,72.13
2022-10-08T08:05:07.175Z,72.12
2022-10-08T08:07:40.607Z,72.10
2022-10-08T08:10:14.273Z,71.95
2022-10-08T08:12:48.277Z,71.69
2022-10-08T08:15:22.715Z,71.60
2022-10-08T08:17:56.329Z,71.19
2022-10-08T08:20:30.141Z,71.02
2022-10-08T08:23:03.736Z,70.79
2022-10-08T08:25:38.113Z,70.49
2022-10-08T08:28:12.017Z,70.49
2022-10-08T08:30:45.961Z,70.36
2022-10-08T08:33:19.526Z,70.07
2022-10-08T08:35:56.116Z,69.90
2022-10-08T08:38:29.566Z,69.42
2022-10-08T08:41:16.420Z,69.18
2022-10-08T08:44:01.379Z,69.09
2022-10-08T08:46:41.306Z,69.07
2022-10-08T08:49:21.234Z,68.89
2022-10-08T08:51:55.080Z,68.73
2022-10-08T08:54:28.766Z,68.31
2022-10-08T08:57:10.867Z,68.16
2022-10-08T08:59:48.318Z,68.08
2022-10-08T09:02:25.796Z,67.81
2022-10-08T09:05:02.906Z,67.63
2022-10-08T09:07:43.025Z,67.15
2022-10-08T09:10:22.987Z,67.10
2022-10-08T09:12:57.444Z,66.94
2022-10-08T09:15:39.251Z,66.28
2022-10-08T09:18:16.766Z,65.92
2022-10-08T09:20:50.516Z,65.98
2022-10-08T09:23:26.120Z,65.64
2022-10-08T09:26:03.498Z,65.43
2022-10-08T09:28:47.933Z,65.26
2022-10-08T09:31:27.996Z,65.21
2022-10-08T09:34:06.921Z,65.49
2022-10-08T09:36:43.540Z,65.21
2022-10-08T09:39:22.890Z,65.27
2022-10-08T09:42:17.617Z,64.68
2022-10-08T09:44:53.218Z,64.46
2022-10-08T09:47:28.527Z,63.98
2022-10-08T09:50:19.832Z,63.08
2022-10-08T09:52:57.999Z,62.77
2022-10-08T09:55:35.819Z,62.60
2022-10-08T09:58:18.332Z,62.91
2022-10-08T10:01:00.165Z,62.60
2022-10-08T10:03:36.879Z,62.44
2022-10-08T10:06:10.741Z,61.90
2022-10-08T10:08:56.891Z,61.95
2022-10-08T10:11:36.959Z,62.19
2022-10-08T10:14:22.723Z,62.46
2022-10-08T10:17:01.618Z,62.31
2022-10-08T10:19:40.299Z,62.00
2022-10-08T10:22:14.920Z,62.16
2022-10-08T10:24:58.053Z,62.34
2022-10-08T10:27:38.589Z,62.59
2022-10-08T10:30:20.227Z,62.82
2022-10-08T10:33:01.160Z,63.19
2022-10-08T10:35:40.236Z,63.00
2022-10-08T10:38:19.501Z,62.99
2022-10-08T10:41:02.798Z,62.87
2022-10-08T10:43:48.519Z,62.98
2022-10-08T10:46:33.742Z,62.73
2022-10-08T10:49:16.296Z,62.67
2022-10-08T10:52:01.133Z,62.58
2022-10-08T10:54:59.523Z,62.80
2022-10-08T10:57:51.682Z,62.62
2022-10-08T11:00:28.690Z,62.84
2022-10-08T11:03:10.752Z,63.23
2022-10-08T11:05:49.003Z,63.20
2022-10-08T11:08:37.292Z,63.40
2022-10-08T11:11:28.539Z,63.56
2022-10-08T11:14:22.281Z,63.81
2022-10-08T11:17:06.810Z,63.81
2022-10-08T11:19:53.042Z,63.73
2022-10-08T11:22:32.460Z,63.84
2022-10-08T11:25:21.719Z,63.74
2022-10-08T11:28:08.581Z,63.83
2022-10-08T11:30:53.119Z,63.55
2022-10-08T11:33:28.033Z,63.62
2022-10-08T11:36:15.324Z,63.41
2022-10-08T11:38:55.633Z,63.46
2022-10-08T11:41:34.931Z,63.43
2022-10-08T11:44:12.237Z,63.37
2022-10-08T11:46:45.742Z,63.37
2022-10-08T11:49:50.292Z,63.28
2022-10-08T11:52:23.764Z,63.24
2022-10-08T11:54:58.083Z,63.54
2022-10-08T11:58:06.280Z,63.38
2022-10-08T12:00:35.574Z,63.53
2022-10-08T12:03:21.541Z,63.52
2022-10-08T12:05:58.803Z,63.52
2022-10-08T12:08:54.110Z,63.65
2022-10-08T12:11:52.436Z,63.16
2022-10-08T12:14:48.447Z,63.00
2022-10-08T12:17:21.826Z,62.95
2022-10-08T12:20:22.575Z,62.60
2022-10-08T12:23:08.678Z,62.17
2022-10-08T12:26:04.912Z,62.04
2022-10-08T12:28:51.948Z,62.08
2022-10-08T12:31:31.457Z,62.00
2022-10-08T12:34:19.301Z,61.70
2022-10-08T12:37:03.077Z,61.82
2022-10-08T12:39:45.243Z,61.72
2022-10-08T12:42:24.360Z,62.54
2022-10-08T12:45:15.025Z,61.07
2022-10-08T12:47:56.381Z,59.67
2022-10-08T12:50:48.494Z,59.92
2022-10-08T12:53:22.432Z,60.01
2022-10-08T12:56:00.074Z,60.23
2022-10-08T12:58:38.239Z,60.36
2022-10-08T13:01:18.117Z,60.89
2022-10-08T13:04:08.867Z,61.09
2022-10-08T13:06:42.788Z,60.72
2022-10-08T13:09:25.726Z,60.87
2022-10-08T13:12:03.507Z,60.87
2022-10-08T13:14:39.863Z,60.59
2022-10-08T13:17:32.008Z,60.29
2022-10-08T13:20:16.404Z,60.03
2022-10-08T13:22:50.542Z,60.11
2022-10-08T13:25:39.122Z,60.20
2022-10-08T13:28:14.777Z,60.45
2022-10-08T13:30:48.791Z,60.52
2022-10-08T13:33:25.252Z,60.64
2022-10-08T13:36:01.884Z,60.53
2022-10-08T13:38:37.247Z,60.73
2022-10-08T13:41:24.084Z,60.99
2022-10-08T13:43:57.825Z,61.01
2022-10-08T13:46:31.463Z,61.23
2022-10-08T13:49:05.360Z,61.39
2022-10-08T13:51:38.836Z,61.50
2022-10-08T13:54:13.006Z,61.65
2022-10-08T13:56:46.863Z,61.75
2022-10-08T13:59:20.991Z,61.68
2022-10-08T14:01:54.704Z,61.92
2022-10-08T14:04:28.635Z,61.97
2022-10-08T14:07:03.930Z,61.98
2022-10-08T14:09:37.413Z,62.01
2022-10-08T14:12:12.782Z,62.14
2022-10-08T14:14:46.147Z,62.10
2022-10-08T14:17:19.778Z,62.05
2022-10-08T14:19:54.584Z,62.05
2022-10-08T14:22:28.083Z,61.79
2022-10-08T14:25:02.100Z,61.62
2022-10-08T14:27:35.539Z,61.60
2022-10-08T14:30:11.753Z,61.55
2022-10-08T14:32:45.508Z,61.66
2022-10-08T14:35:18.994Z,61.64
2022-10-08T14:37:52.449Z,61.94
2022-10-08T14:40:26.382Z,62.01
2022-10-08T14:43:00.160Z,61.44
2022-10-08T14:45:33.766Z,60.85
2022-10-08T14:48:07.363Z,60.77
2022-10-08T14:50:40.998Z,60.60
2022-10-08T14:53:14.630Z,60.51
2022-10-08T14:56:11.051Z,60.49
2022-10-08T14:58:44.471Z,60.61
2022-10-08T15:01:17.834Z,60.75
2022-10-08T15:03:51.346Z,60.70
2022-10-08T15:06:24.840Z,60.75
2022-10-08T15:08:58.844Z,60.81
2022-10-08T15:11:32.796Z,60.86
2022-10-08T15:14:06.279Z,60.91
2022-10-08T15:16:39.968Z,60.99
2022-10-08T15:19:14.205Z,61.07
2022-10-08T15:21:47.740Z,61.13
2022-10-08T15:24:20.993Z,61.04
2022-10-08T15:26:54.962Z,61.15
2022-10-08T15:29:28.482Z,61.46
2022-10-08T15:32:01.808Z,61.54
2022-10-08T15:34:35.589Z,61.78
2022-10-08T15:37:09.362Z,62.02
2022-10-08T15:39:43.209Z,62.29
2022-10-08T15:42:16.466Z,62.43
2022-10-08T15:44:50.238Z,62.54
2022-10-08T15:47:24.189Z,62.65
2022-10-08T15:49:57.631Z,62.73
2022-10-08T15:52:30.844Z,63.07
2022-10-08T15:55:04.225Z,63.37
2022-10-08T15:57:37.740Z,63.47
2022-10-08T16:00:13.608Z,63.70
2022-10-08T16:02:47.221Z,63.95
2022-10-08T16:05:22.222Z,64.05
2022-10-08T16:07:55.649Z,64.19
2022-10-08T16:10:29.077Z,64.42
2022-10-08T16:13:02.617Z,64.84
2022-10-08T16:15:40.920Z,65.54
2022-10-08T16:18:14.997Z,65.94
2022-10-08T16:20:52.580Z,65.78
2022-10-08T16:23:26.641Z,65.94
2022-10-08T16:26:02.678Z,66.09
2022-10-08T16:28:37.845Z,66.51
2022-10-08T16:31:12.242Z,66.84
2022-10-08T16:33:45.757Z,67.18
2022-10-08T16:36:19.533Z,67.64
2022-10-08T16:38:53.308Z,68.17
2022-10-08T16:41:28.336Z,68.44
2022-10-08T16:44:09.896Z,68.76
2022-10-08T16:46:50.875Z,69.22
2022-10-08T16:49:26.061Z,69.48
2022-10-08T16:52:08.883Z,69.52
2022-10-08T16:54:42.681Z,69.66
2022-10-08T16:57:16.395Z,69.94
2022-10-08T16:59:50.448Z,70.02
2022-10-08T17:02:26.061Z,70.52
2022-10-08T17:05:00.521Z,71.07
2022-10-08T17:07:34.521Z,71.39
2022-10-08T17:10:09.490Z,71.56
2022-10-08T17:12:43.329Z,71.69
2022-10-08T17:15:17.397Z,71.95
2022-10-08T17:17:55.424Z,72.30
2022-10-08T17:20:31.108Z,72.71
2022-10-08T17:23:04.834Z,72.90
2022-10-08T17:25:38.569Z,72.93
2022-10-08T17:28:12.286Z,73.21
2022-10-08T17:30:46.111Z,73.22
2022-10-08T17:33:20.593Z,73.41
2022-10-08T17:36:01.471Z,73.71
2022-10-08T17:38:35.314Z,73.74
2022-10-08T17:41:17.126Z,73.81
2022-10-08T17:43:52.591Z,73.81
2022-10-08T17:46:28.021Z,73.86
2022-10-08T17:49:02.500Z,73.98
2022-10-08T17:51:36.435Z,74.05
2022-10-08T17:54:13.662Z,74.03
2022-10-08T17:56:47.628Z,73.98
2022-10-08T17:59:23.477Z,73.98
2022-10-08T18:01:57.310Z,74.07
2022-10-08T18:04:31.165Z,73.99
2022-10-08T18:07:06.797Z,74.14
2022-10-08T18:09:41.131Z,73.98
2022-10-08T18:12:15.327Z,73.73
2022-10-08T18:14:49.609Z,73.84
2022-10-08T18:17:22.546Z,73.65
2022-10-08T18:19:56.798Z,73.57
2022-10-08T18:22:30.472Z,73.59
2022-10-08T18:25:05.637Z,73.50
2022-10-08T18:27:39.515Z,73.39
2022-10-08T18:30:15.806Z,73.14
2022-10-08T18:32:49.595Z,73.18
2022-10-08T18:35:23.242Z,72.95
2022-10-08T18:37:57.343Z,72.74
2022-10-08T18:40:32.709Z,72.76
2022-10-08T18:43:06.086Z,72.76
2022-10-08T18:45:40.973Z,72.70
2022-10-08T18:48:14.956Z,72.53
2022-10-08T18:50:48.752Z,72.54
2022-10-08T18:53:23.245Z,72.23
2022-10-08T18:55:58.515Z,72.03
2022-10-08T18:58:33.006Z,72.25
2022-10-08T19:01:07.866Z,72.22
2022-10-08T19:03:45.843Z,72.02
2022-10-08T19:06:21.760Z,71.78
2022-10-08T19:08:56.557Z,71.54
2022-10-08T19:11:33.860Z,71.44
2022-10-08T19:14:08.665Z,71.29
2022-10-08T19:16:43.698Z,71.29
2022-10-08T19:19:19.734Z,71.17
2022-10-08T19:21:54.727Z,70.79
2022-10-08T19:24:30.125Z,70.78
2022-10-08T19:27:03.956Z,70.67
2022-10-08T19:29:39.672Z,70.66
2022-10-08T19:32:13.800Z,70.73
2022-10-08T19:34:51.089Z,70.76
2022-10-08T19:37:25.659Z,70.50
2022-10-08T19:40:01.308Z,70.19
2022-10-08T19:42:35.912Z,70.05
2022-10-08T19:45:13.515Z,70.03
2022-10-08T19:47:47.281Z,70.19
2022-10-08T19:50:21.834Z,69.93
2022-10-08T19:52:56.574Z,69.86
2022-10-08T19:55:32.329Z,69.89
2022-10-08T19:58:07.147Z,69.93
2022-10-08T20:00:41.666Z,70.16
2022-10-08T20:03:15.499Z,70.03
2022-10-08T20:05:49.101Z,69.87
2022-10-08T20:08:22.646Z,69.90
2022-10-08T20:10:58.193Z,70.00
2022-10-08T20:13:32.766Z,69.98
2022-10-08T20:16:10.791Z,69.79
2022-10-08T20:18:49.253Z,69.73
2022-10-08T20:21:23.579Z,69.83
2022-10-08T20:23:57.782Z,69.86
2022-10-08T20:26:32.706Z,69.91
2022-10-08T20:29:08.895Z,70.00
2022-10-08T20:31:44.755Z,70.03
2022-10-08T20:34:20.306Z,69.94
2022-10-08T20:36:54.890Z,69.88
2022-10-08T20:39:28.644Z,69.97
2022-10-08T20:42:02.164Z,69.92
2022-10-08T20:44:35.589Z,69.86
2022-10-08T20:47:09.368Z,69.75
2022-10-08T20:49:42.626Z,69.73
2022-10-08T20:52:16.053Z,69.87
2022-10-08T20:54:49.728Z,69.69
2022-10-08T20:57:23.518Z,69.82
2022-10-08T20:59:57.293Z,69.92
2022-10-08T21:02:30.752Z,69.80
2022-10-08T21:05:04.455Z,69.77
2022-10-08T21:07:38.036Z,69.74
2022-10-08T21:10:13.177Z,69.60
2022-10-08T21:12:46.894Z,69.62
2022-10-08T21:15:20.697Z,69.51
2022-10-08T21:17:54.440Z,69.41
2022-10-08T21:20:28.224Z,69.38
2022-10-08T21:23:01.691Z,69.42
2022-10-08T21:25:35.443Z,69.42
2022-10-08T21:28:09.325Z,69.30
2022-10-08T21:30:42.972Z,69.21
2022-10-08T21:33:16.391Z,69.05
2022-10-08T21:35:49.825Z,69.09
2022-10-08T21:38:23.159Z,68.82
2022-10-08T21:41:02.416Z,68.91
2022-10-08T21:43:35.665Z,69.18
2022-10-08T21:46:10.699Z,69.20
2022-10-08T21:48:44.972Z,69.22
2022-10-08T21:51:20.474Z,69.13
2022-10-08T21:53:55.950Z,69.13
2022-10-08T21:56:31.386Z,69.01
2022-10-08T21:59:06.695Z,69.17
2022-10-08T22:01:41.851Z,69.21
2022-10-08T22:04:17.179Z,69.23
2022-10-08T22:06:52.228Z,69.38
2022-10-08T22:09:28.108Z,69.28
2022-10-08T22:12:03.029Z,69.32
2022-10-08T22:14:36.598Z,69.24
2022-10-08T22:17:09.749Z,69.32
2022-10-08T22:19:43.265Z,69.34
2022-10-08T22:22:17.008Z,69.40
2022-10-08T22:24:50.647Z,69.34
2022-10-08T22:27:24.235Z,69.30
2022-10-08T22:29:58.093Z,69.35
2022-10-08T22:32:31.600Z,69.23
2022-10-08T22:35:04.927Z,69.51
2022-10-08T22:37:38.726Z,69.56
2022-10-08T22:40:13.044Z,69.79
2022-10-08T22:42:46.784Z,69.58
2022-10-08T22:45:20.490Z,69.69
2022-10-08T22:47:54.002Z,69.64
2022-10-08T22:50:27.392Z,69.57
2022-10-08T22:53:00.633Z,69.75
2022-10-08T22:55:34.377Z,69.81
2022-10-08T22:58:07.606Z,69.91
2022-10-08T23:00:41.439Z,69.89
2022-10-08T23:03:14.914Z,69.85
2022-10-08T23:05:48.169Z,69.81
2022-10-08T23:08:21.506Z,69.79
2022-10-08T23:10:59.426Z,69.89
2022-10-08T23:13:34.387Z,70.06
2022-10-08T23:16:09.846Z,70.09
2022-10-08T23:18:44.735Z,70.18
2022-10-08T23:21:19.455Z,70.39
2022-10-08T23:23:54.102Z,70.37
2022-10-08T23:26:28.430Z,70.62
2022-10-08T23:29:03.038Z,70.85
2022-10-08T23:31:38.031Z,71.16
2022-10-08T23:34:11.794Z,71.14
2022-10-08T23:36:47.044Z,71.20
2022-10-08T23:39:22.245Z,71.46
2022-10-08T23:41:55.635Z,71.55
2022-10-08T23:44:28.967Z,71.65
2022-10-08T23:47:02.286Z,71.58
2022-10-08T23:49:35.479Z,71.62
2022-10-08T23:52:08.725Z,71.80
2022-10-08T23:54:41.996Z,71.90
2022-10-08T23:57:15.518Z,71.88
2022-10-08T23:59:48.842Z,71.81
